Airfield :
LOGIN :

Register | Disclaimer

   EN    FR    IT 

 










Legend :    VFR   Marginal VFR   IFR   Intensive IFR   Very Intensive IFR
Visi :
Ceiling :
>= 8 km
>= 3000ft
5 to 8 km
1000 to 3000 ft
1500m to 5 km
500 to 1000 ft
800 to 1500m
200 to 500 ft
< 800m
< 200 ft
Symbols :   Thunderstorms  Fog  Heavy snow  Heavy precipitations  Wind > 20 kt
SIGMETs :     Misc.  Thunderstorms  Icing  Turbulence  Mountain Waves  Volcanic Ashes






- Airport Elevation : 326 ft
- IATA code : LCG


LECO - A Coruna

CURRENT METAR :
  • 162030Z 18009KT 140V200 9999 BKN020 18/14 Q1011 NOSIG

EXPIRED METARs :
  • 162000Z 19010KT 160V220 9999 BKN020 18/15 Q1011 NOSIG
  • 161930Z 20011KT 160V220 9999 BKN021 18/15 Q1012 NOSIG
  • 161900Z 19007KT 130V240 9999 BKN022 18/15 Q1012 NOSIG
  • 161830Z 19010KT 150V210 9999 -RA SCT025 18/15 Q1011 NOSIG
  • 161800Z 20009KT 160V230 9999 -RA SCT022 18/15 Q1012 NOSIG
  • 161730Z 21012KT 170V230 9999 SCT022 19/15 Q1012 NOSIG
  • 161700Z 22011G23KT 170V290 9999 SCT025 BKN049 19/14 Q1012 NOSIG
  • 161630Z 21009KT 9999 FEW015 BKN029 19/15 Q1012 NOSIG
  • 161600Z 22010KT 190V280 9999 SCT025 BKN031 20/14 Q1012 NOSIG

TAF TAF LECO
Valid from the 16 at 21:00 until the 17 at 21:00 UTC


162000Z 1621/1721 22009KT 9999 SCT020 BKN035 TX19/1715Z TN14/1705Z
PROB30
TEMPO 1621/1706 3000 RA BKN010
PROB40
TEMPO 1621/1712 23015G25KT
PROB40
TEMPO 1706/1721 3000 SHRA SCT035TCU
PROB30
TEMPO 1712/1717 3000 TSRA SCT035CB



MET'MAP, your aeronautical weather chart ! - Copyright ORBIFLY December 2007 - Disclaimer

ORBIFLY MET'MAP TEAM :

Programming & Development : Alexandra Zaïnal
Original concept : Baudouin d'Aumeries
Technical & hardware support : Manuel Goepfert
Assistance : Marc-Olivier Méhu




SOURCES & CREDITS :

   NOAA